Time;durP1;ratioP1;P1;durP2;ratioP2;P2;SDS_P1;SDS_P2;PMS_P1;PMS_P2;Temp;Humidity;BMP_temperature;BMP_pressure;BME280_temperature;BME280_humidity;BME280_pressure;Samples;Min_cycle;Max_cycle;Signal;HPM_P1;HPM_P2
2022/10/06 00:01:05;;;;;;;;;0.00;0.00;;;;;;;;5077924;27;45380;-69
2022/10/06 00:03:30;;;;;;;;;0.33;0.33;;;;;;;;5095808;27;46189;-69
2022/10/06 00:05:59;;;;;;;;;0.67;0.33;;;;;;;;5096075;27;45487;-69
2022/10/06 00:08:25;;;;;;;;;2.00;0.00;;;;;;;;5095880;27;45484;-70
2022/10/06 00:10:53;;;;;;;;;1.00;0.00;;;;;;;;5096071;27;45448;-69
2022/10/06 00:13:19;;;;;;;;;3.00;1.00;;;;;;;;5096093;27;47209;-69
2022/10/06 00:15:44;;;;;;;;;0.67;0.67;;;;;;;;5096156;27;45326;-69
2022/10/06 00:18:09;;;;;;;;;1.67;1.00;;;;;;;;5095581;27;45359;-69
2022/10/06 00:20:34;;;;;;;;;1.00;0.00;;;;;;;;5095981;27;45509;-69
2022/10/06 00:22:59;;;;;;;;;1.00;0.00;;;;;;;;5095688;27;45314;-69
2022/10/06 00:25:25;;;;;;;;;2.00;1.00;;;;;;;;5095778;27;45283;-70
2022/10/06 00:27:50;;;;;;;;;1.00;0.00;;;;;;;;5095900;27;45296;-70
2022/10/06 00:30:17;;;;;;;;;0.00;0.00;;;;;;;;5095819;27;45549;-69
2022/10/06 00:32:54;;;;;;;;;0.33;0.33;;;;;;;;5095421;27;46542;-69
2022/10/06 00:35:19;;;;;;;;;0.67;0.00;;;;;;;;5081635;27;45581;-69
2022/10/06 00:37:45;;;;;;;;;0.67;0.00;;;;;;;;5095818;27;45288;-70
2022/10/06 00:40:10;;;;;;;;;4.00;1.00;;;;;;;;5095484;27;45485;-70
2022/10/06 00:42:49;;;;;;;;;0.00;0.00;;;;;;;;5095423;27;45405;-69
2022/10/06 00:45:14;;;;;;;;;2.67;1.00;;;;;;;;5095482;27;45348;-69
2022/10/06 00:47:40;;;;;;;;;1.00;0.00;;;;;;;;5076933;27;45477;-69
2022/10/06 00:50:07;;;;;;;;;0.00;0.00;;;;;;;;5095377;27;45373;-70
2022/10/06 00:52:32;;;;;;;;;4.67;0.00;;;;;;;;5095368;27;46073;-69
2022/10/06 00:54:57;;;;;;;;;0.00;0.00;;;;;;;;5095350;27;45324;-70
2022/10/06 00:57:24;;;;;;;;;0.67;0.67;;;;;;;;5095523;27;45414;-69
2022/10/06 00:59:49;;;;;;;;;0.00;0.00;;;;;;;;5095610;27;45395;-69
2022/10/06 01:02:14;;;;;;;;;1.00;0.00;;;;;;;;5094894;27;45370;-69
2022/10/06 01:04:43;;;;;;;;;0.00;0.00;;;;;;;;5095224;27;45314;-69
2022/10/06 01:07:08;;;;;;;;;0.00;0.00;;;;;;;;5095609;27;45650;-70
2022/10/06 01:09:34;;;;;;;;;0.00;0.00;;;;;;;;5098987;27;45298;-69
2022/10/06 01:12:02;;;;;;;;;0.33;0.00;;;;;;;;5098741;27;46021;-69
2022/10/06 01:14:28;;;;;;;;;2.00;0.00;;;;;;;;5098725;27;45403;-69
2022/10/06 01:16:56;;;;;;;;;0.00;0.00;;;;;;;;5098813;27;45365;-69
2022/10/06 01:19:46;;;;;;;;;0.00;0.00;;;;;;;;5098519;27;45432;-70
2022/10/06 01:22:12;;;;;;;;;0.00;0.00;;;;;;;;5098179;27;46376;-69
2022/10/06 01:24:37;;;;;;;;;0.00;0.00;;;;;;;;5098472;27;45389;-69
2022/10/06 01:27:04;;;;;;;;;0.00;0.00;;;;;;;;5098807;27;45394;-70
2022/10/06 01:29:32;;;;;;;;;0.33;0.00;;;;;;;;5098639;27;45468;-70
2022/10/06 01:31:58;;;;;;;;;0.00;0.00;;;;;;;;5098129;27;46010;-70
2022/10/06 01:34:23;;;;;;;;;0.00;0.00;;;;;;;;5098769;27;45350;-69
2022/10/06 01:36:49;;;;;;;;;1.67;1.00;;;;;;;;5098433;27;45355;-70
2022/10/06 01:39:14;;;;;;;;;1.00;1.00;;;;;;;;5098672;27;45305;-69
2022/10/06 01:41:39;;;;;;;;;0.00;0.00;;;;;;;;5098333;27;46237;-69
2022/10/06 01:44:04;;;;;;;;;0.00;0.00;;;;;;;;5098314;27;45368;-69
2022/10/06 01:46:29;;;;;;;;;2.33;0.00;;;;;;;;5098077;27;45393;-69
2022/10/06 01:48:55;;;;;;;;;0.00;0.00;;;;;;;;5098640;27;45256;-69
2022/10/06 01:51:20;;;;;;;;;3.00;1.00;;;;;;;;5098012;27;46084;-69
2022/10/06 01:53:45;;;;;;;;;1.00;0.00;;;;;;;;5098136;27;45486;-69
2022/10/06 01:56:10;;;;;;;;;0.67;0.67;;;;;;;;5098467;27;45509;-69
2022/10/06 01:58:36;;;;;;;;;1.00;0.00;;;;;;;;5098121;27;45267;-69
2022/10/06 02:01:07;;;;;;;;;0.67;0.67;;;;;;;;5097938;27;45974;-69
2022/10/06 02:03:34;;;;;;;;;2.00;0.00;;;;;;;;5098045;27;45314;-69
2022/10/06 02:05:59;;;;;;;;;0.00;0.00;;;;;;;;5097972;27;45449;-70
2022/10/06 02:08:24;;;;;;;;;0.67;0.00;;;;;;;;5097549;27;45310;-69
2022/10/06 02:10:50;;;;;;;;;1.67;0.00;;;;;;;;5097696;27;46203;-69
2022/10/06 02:13:15;;;;;;;;;2.00;0.67;;;;;;;;5097910;27;45413;-70
2022/10/06 02:15:40;;;;;;;;;0.00;0.00;;;;;;;;5097722;27;45311;-69
2022/10/06 02:18:06;;;;;;;;;0.00;0.00;;;;;;;;5097616;27;45373;-69
2022/10/06 02:20:32;;;;;;;;;0.00;0.00;;;;;;;;5079290;27;46332;-69
2022/10/06 02:22:57;;;;;;;;;0.00;0.00;;;;;;;;5097885;27;45443;-69
2022/10/06 02:25:22;;;;;;;;;0.00;0.00;;;;;;;;5097954;27;45424;-69
2022/10/06 02:27:47;;;;;;;;;0.00;0.00;;;;;;;;5097830;27;45312;-70
2022/10/06 02:30:15;;;;;;;;;1.00;0.00;;;;;;;;5097259;27;46427;-69
2022/10/06 02:32:42;;;;;;;;;0.00;0.00;;;;;;;;5097583;27;45391;-69
2022/10/06 02:35:09;;;;;;;;;1.00;0.00;;;;;;;;5097697;27;45451;-70
2022/10/06 02:37:34;;;;;;;;;1.00;0.00;;;;;;;;5097523;27;45406;-70
2022/10/06 02:39:59;;;;;;;;;0.67;0.00;;;;;;;;5097229;27;46992;-70
2022/10/06 02:42:24;;;;;;;;;0.00;0.00;;;;;;;;5097568;27;45421;-70
2022/10/06 02:44:51;;;;;;;;;0.00;0.00;;;;;;;;5097193;27;45229;-69
2022/10/06 02:47:16;;;;;;;;;2.00;1.00;;;;;;;;5097531;27;45282;-69
2022/10/06 02:49:41;;;;;;;;;0.00;0.00;;;;;;;;5097350;27;46093;-70
2022/10/06 02:52:07;;;;;;;;;0.00;0.00;;;;;;;;5097032;27;45388;-70
2022/10/06 02:54:34;;;;;;;;;1.00;0.00;;;;;;;;5097434;27;45516;-70
2022/10/06 02:56:59;;;;;;;;;0.00;0.00;;;;;;;;5097402;27;45375;-69
2022/10/06 02:59:24;;;;;;;;;0.00;0.00;;;;;;;;5096782;27;45331;-70
2022/10/06 03:01:51;;;;;;;;;4.00;0.00;;;;;;;;5096966;27;45535;-70
2022/10/06 03:04:16;;;;;;;;;1.00;0.00;;;;;;;;5097415;27;45337;-70
2022/10/06 03:06:41;;;;;;;;;0.00;0.00;;;;;;;;5097124;27;45303;-69
2022/10/06 03:09:07;;;;;;;;;0.00;0.00;;;;;;;;5096934;27;45489;-70
2022/10/06 03:11:34;;;;;;;;;0.00;0.00;;;;;;;;5096996;27;45328;-70
2022/10/06 03:13:59;;;;;;;;;1.33;0.00;;;;;;;;5096890;27;45492;-69
2022/10/06 03:16:25;;;;;;;;;2.00;0.00;;;;;;;;5097091;27;45358;-70
2022/10/06 03:18:52;;;;;;;;;1.00;0.00;;;;;;;;5097200;27;47112;-69
2022/10/06 03:21:18;;;;;;;;;2.67;0.00;;;;;;;;5096808;27;45335;-70
2022/10/06 03:23:44;;;;;;;;;0.00;0.00;;;;;;;;5097186;27;45488;-70
2022/10/06 03:26:10;;;;;;;;;0.67;0.00;;;;;;;;5096760;27;45474;-69
2022/10/06 03:28:35;;;;;;;;;1.00;0.00;;;;;;;;5096334;27;45418;-70
2022/10/06 03:31:01;;;;;;;;;0.00;0.00;;;;;;;;5096139;27;45418;-69
2022/10/06 03:33:27;;;;;;;;;0.00;0.00;;;;;;;;5096923;27;45591;-70
2022/10/06 03:35:59;;;;;;;;;3.33;0.00;;;;;;;;5096689;27;45341;-70
2022/10/06 03:38:24;;;;;;;;;0.00;0.00;;;;;;;;5096337;27;46358;-70
2022/10/06 03:40:49;;;;;;;;;0.00;0.00;;;;;;;;5096287;27;45323;-70
2022/10/06 03:43:14;;;;;;;;;0.33;0.00;;;;;;;;5096741;27;45596;-68
2022/10/06 03:45:40;;;;;;;;;0.00;0.00;;;;;;;;5096794;27;45426;-68
2022/10/06 03:48:05;;;;;;;;;0.00;0.00;;;;;;;;5096321;27;46002;-70
2022/10/06 03:50:31;;;;;;;;;0.00;0.00;;;;;;;;5096310;27;45418;-70
2022/10/06 03:52:56;;;;;;;;;0.00;0.00;;;;;;;;5096874;27;45376;-70
2022/10/06 03:55:21;;;;;;;;;0.00;0.00;;;;;;;;5095978;27;45350;-70
2022/10/06 03:57:46;;;;;;;;;0.00;0.00;;;;;;;;5096390;27;46454;-70
2022/10/06 04:00:12;;;;;;;;;1.00;0.00;;;;;;;;5096318;27;45389;-69
2022/10/06 04:02:37;;;;;;;;;0.00;0.00;;;;;;;;5096460;27;45291;-69
2022/10/06 04:05:02;;;;;;;;;2.00;0.67;;;;;;;;5096387;27;45367;-70
2022/10/06 04:07:27;;;;;;;;;2.00;1.00;;;;;;;;5095467;27;45341;-69
2022/10/06 04:09:52;;;;;;;;;0.00;0.00;;;;;;;;5096006;27;45464;-70
2022/10/06 04:12:18;;;;;;;;;2.00;0.00;;;;;;;;5096460;27;45277;-70
2022/10/06 04:14:43;;;;;;;;;0.00;0.00;;;;;;;;5096112;27;45300;-70
2022/10/06 04:17:08;;;;;;;;;1.00;0.00;;;;;;;;5096063;27;46573;-70
2022/10/06 04:19:33;;;;;;;;;0.00;0.00;;;;;;;;5096055;27;45569;-70
2022/10/06 04:21:58;;;;;;;;;1.00;1.00;;;;;;;;5096088;27;45305;-70
2022/10/06 04:24:24;;;;;;;;;0.00;0.00;;;;;;;;5095593;27;45244;-70
2022/10/06 04:26:49;;;;;;;;;0.00;0.00;;;;;;;;5095620;27;47056;-70
2022/10/06 04:29:14;;;;;;;;;0.00;0.00;;;;;;;;5095910;27;45448;-70
2022/10/06 04:31:41;;;;;;;;;0.33;0.00;;;;;;;;5095924;27;45428;-70
2022/10/06 04:34:06;;;;;;;;;0.00;0.00;;;;;;;;5095876;27;45454;-70
2022/10/06 04:36:33;;;;;;;;;0.00;0.00;;;;;;;;5095353;27;46241;-70
2022/10/06 04:39:00;;;;;;;;;1.00;0.00;;;;;;;;5095664;27;45393;-69
2022/10/06 04:41:26;;;;;;;;;0.00;0.00;;;;;;;;5095548;27;45391;-70
2022/10/06 04:43:52;;;;;;;;;0.00;0.00;;;;;;;;5088953;27;45376;-70
2022/10/06 04:46:18;;;;;;;;;0.67;0.00;;;;;;;;5088718;27;46139;-69
2022/10/06 04:48:43;;;;;;;;;2.33;0.00;;;;;;;;5095722;27;45409;-69
2022/10/06 04:51:10;;;;;;;;;0.00;0.00;;;;;;;;5077344;27;45316;-70
2022/10/06 04:53:36;;;;;;;;;0.00;0.00;;;;;;;;5095323;27;45645;-70
2022/10/06 04:56:03;;;;;;;;;0.00;0.00;;;;;;;;5095305;27;46064;-70
2022/10/06 04:58:32;;;;;;;;;0.33;0.33;;;;;;;;5095502;27;45483;-70
2022/10/06 05:00:58;;;;;;;;;1.00;0.33;;;;;;;;5095980;27;45412;-70
2022/10/06 05:03:23;;;;;;;;;2.33;0.00;;;;;;;;5095436;27;45456;-70
2022/10/06 05:05:48;;;;;;;;;0.00;0.00;;;;;;;;5095207;27;46303;-70
2022/10/06 05:08:14;;;;;;;;;1.00;1.00;;;;;;;;5094864;27;45425;-70
2022/10/06 05:10:40;;;;;;;;;0.33;0.00;;;;;;;;5095600;27;45441;-69
2022/10/06 05:13:10;;;;;;;;;2.33;0.00;;;;;;;;5095543;27;45570;-70
2022/10/06 05:15:35;;;;;;;;;0.00;0.00;;;;;;;;5095251;27;46399;-70
2022/10/06 05:18:00;;;;;;;;;0.00;0.00;;;;;;;;5095082;27;45362;-70
2022/10/06 05:20:26;;;;;;;;;0.00;0.00;;;;;;;;5095596;27;45401;-70
2022/10/06 05:22:51;;;;;;;;;0.00;0.00;;;;;;;;5095350;27;45339;-70
2022/10/06 05:25:17;;;;;;;;;2.00;2.00;;;;;;;;5095098;27;46217;-70
2022/10/06 05:27:42;;;;;;;;;0.33;0.33;;;;;;;;5095485;27;45300;-70
2022/10/06 05:30:07;;;;;;;;;1.67;0.00;;;;;;;;5095065;27;45468;-70
2022/10/06 05:32:32;;;;;;;;;1.00;1.00;;;;;;;;5095155;27;45516;-70
2022/10/06 05:34:58;;;;;;;;;0.00;0.00;;;;;;;;5095250;27;45922;-73
2022/10/06 05:37:24;;;;;;;;;0.67;0.33;;;;;;;;5094683;27;45419;-72
2022/10/06 05:39:49;;;;;;;;;1.67;0.00;;;;;;;;5095209;27;45294;-73
2022/10/06 05:42:14;;;;;;;;;0.67;0.00;;;;;;;;5095399;27;45316;-73
2022/10/06 05:44:39;;;;;;;;;1.00;0.00;;;;;;;;5094932;27;47284;-74
2022/10/06 05:47:04;;;;;;;;;1.00;1.00;;;;;;;;5095180;27;45548;-70
2022/10/06 05:49:30;;;;;;;;;1.67;1.33;;;;;;;;5092513;27;45357;-68
2022/10/06 05:51:55;;;;;;;;;0.00;0.00;;;;;;;;5084415;27;46047;-70
2022/10/06 05:54:20;;;;;;;;;1.00;0.00;;;;;;;;5096652;27;47148;-68
2022/10/06 05:56:45;;;;;;;;;1.00;1.00;;;;;;;;5097937;27;45275;-69
2022/10/06 05:59:10;;;;;;;;;0.00;0.00;;;;;;;;5098167;27;45257;-70
2022/10/06 06:01:38;;;;;;;;;1.00;1.00;;;;;;;;5098263;27;45411;-69
2022/10/06 06:04:05;;;;;;;;;1.00;0.00;;;;;;;;5096784;27;47028;-70
2022/10/06 06:06:30;;;;;;;;;0.00;0.00;;;;;;;;5096925;27;45334;-69
2022/10/06 06:08:59;;;;;;;;;0.00;0.00;;;;;;;;5097083;27;45421;-69
2022/10/06 06:11:26;;;;;;;;;0.33;0.00;;;;;;;;5097306;27;45331;-69
2022/10/06 06:13:52;;;;;;;;;0.00;0.00;;;;;;;;5097125;27;47231;-70
2022/10/06 06:16:17;;;;;;;;;1.00;0.67;;;;;;;;5097676;27;46202;-70
2022/10/06 06:18:42;;;;;;;;;0.00;0.00;;;;;;;;5097873;27;45418;-75
2022/10/06 06:21:08;;;;;;;;;0.00;0.00;;;;;;;;5097348;27;45342;-72
2022/10/06 06:23:35;;;;;;;;;0.00;0.00;;;;;;;;5097471;27;46505;-72
2022/10/06 06:26:02;;;;;;;;;0.00;0.00;;;;;;;;5091389;27;45398;-72
2022/10/06 06:28:28;;;;;;;;;1.00;0.00;;;;;;;;5097685;27;45414;-72
2022/10/06 06:31:02;;;;;;;;;0.00;0.00;;;;;;;;5097710;27;45233;-72
2022/10/06 06:33:28;;;;;;;;;0.00;0.00;;;;;;;;5096966;27;45271;-72
2022/10/06 06:35:53;;;;;;;;;0.00;0.00;;;;;;;;5096720;27;45574;-72
2022/10/06 06:38:19;;;;;;;;;2.00;0.00;;;;;;;;5097523;27;45317;-72
2022/10/06 06:40:44;;;;;;;;;0.00;0.00;;;;;;;;5097309;27;45280;-72
2022/10/06 06:43:11;;;;;;;;;1.00;0.67;;;;;;;;5097192;27;45551;-72
2022/10/06 06:45:36;;;;;;;;;1.00;0.00;;;;;;;;5097356;27;45347;-72
2022/10/06 06:48:02;;;;;;;;;0.67;0.00;;;;;;;;5097122;27;45531;-72
2022/10/06 06:50:27;;;;;;;;;0.00;0.00;;;;;;;;5096887;27;45516;-72
2022/10/06 06:52:53;;;;;;;;;0.00;0.00;;;;;;;;5097122;27;46039;-72
2022/10/06 06:55:18;;;;;;;;;1.00;0.00;;;;;;;;5096932;27;45371;-72
2022/10/06 06:57:45;;;;;;;;;1.33;0.00;;;;;;;;5097341;27;45361;-72
2022/10/06 07:00:11;;;;;;;;;3.33;1.00;;;;;;;;5097163;27;45363;-72
2022/10/06 07:02:36;;;;;;;;;0.33;0.33;;;;;;;;5096855;27;47227;-72
2022/10/06 07:05:01;;;;;;;;;0.00;0.00;;;;;;;;5095493;27;45440;-72
2022/10/06 07:07:27;;;;;;;;;0.00;0.00;;;;;;;;5096649;27;45555;-72
2022/10/06 07:09:52;;;;;;;;;1.00;0.00;;;;;;;;5097107;27;45435;-72
2022/10/06 07:12:17;;;;;;;;;0.33;0.00;;;;;;;;5096917;27;47102;-72
2022/10/06 07:25:05;;;;;;;;;0.33;0.00;;;;;;;;5096925;27;45508;-72
2022/10/06 07:25:47;;;;;;;;;0.67;0.67;;;;;;;;5033603;28;45428;-73
2022/10/06 07:28:15;;;;;;;;;1.00;1.00;;;;;;;;5033895;28;45515;-72
2022/10/06 07:30:40;;;;;;;;;2.00;0.67;;;;;;;;5033517;28;45407;-72
2022/10/06 07:33:06;;;;;;;;;1.67;1.00;;;;;;;;5033191;28;45408;-72
2022/10/06 07:35:31;;;;;;;;;0.00;0.00;;;;;;;;5033392;28;45491;-72
2022/10/06 07:38:01;;;;;;;;;1.00;0.00;;;;;;;;5033288;28;45361;-72
2022/10/06 07:40:26;;;;;;;;;0.67;0.00;;;;;;;;5033600;28;45468;-72
2022/10/06 07:42:51;;;;;;;;;2.67;0.00;;;;;;;;5033347;28;45333;-72
2022/10/06 07:45:43;;;;;;;;;1.00;0.00;;;;;;;;5032930;28;45419;-72
2022/10/06 07:48:10;;;;;;;;;2.33;0.00;;;;;;;;5032976;28;45360;-72
2022/10/06 07:50:38;;;;;;;;;1.00;1.00;;;;;;;;5033176;28;45595;-72
2022/10/06 07:53:07;;;;;;;;;0.00;0.00;;;;;;;;5033310;28;46414;-72
2022/10/06 07:55:32;;;;;;;;;2.00;1.00;;;;;;;;5032980;28;45341;-72
2022/10/06 07:57:58;;;;;;;;;2.00;0.00;;;;;;;;5086043;27;45296;-72
2022/10/06 08:00:25;;;;;;;;;0.00;0.00;;;;;;;;5096511;27;45484;-72
2022/10/06 08:02:53;;;;;;;;;1.00;0.00;;;;;;;;5095943;27;46361;-72
2022/10/06 08:05:18;;;;;;;;;0.00;0.00;;;;;;;;5096209;27;45630;-72
2022/10/06 08:07:44;;;;;;;;;1.67;0.00;;;;;;;;5096025;27;45366;-72
2022/10/06 08:10:09;;;;;;;;;0.67;0.67;;;;;;;;5096202;27;45466;-72
2022/10/06 08:12:39;;;;;;;;;2.00;0.00;;;;;;;;5095876;27;45487;-72
2022/10/06 08:15:05;;;;;;;;;0.00;0.00;;;;;;;;5096023;27;45365;-72
2022/10/06 08:17:31;;;;;;;;;2.67;0.00;;;;;;;;5095444;27;45500;-72
2022/10/06 08:19:56;;;;;;;;;1.00;0.00;;;;;;;;5095781;27;45461;-72
2022/10/06 08:22:26;;;;;;;;;1.00;1.00;;;;;;;;5096178;27;45363;-72
2022/10/06 08:24:53;;;;;;;;;0.67;0.67;;;;;;;;5095769;27;45543;-72
2022/10/06 08:27:18;;;;;;;;;1.00;1.00;;;;;;;;5095859;27;45429;-72
2022/10/06 08:29:43;;;;;;;;;2.00;0.00;;;;;;;;5095961;27;45760;-72
2022/10/06 08:32:08;;;;;;;;;0.00;0.00;;;;;;;;5076769;27;47287;-72
2022/10/06 08:34:35;;;;;;;;;0.00;0.00;;;;;;;;5095606;27;45402;-72
2022/10/06 08:37:02;;;;;;;;;1.33;0.00;;;;;;;;5095828;27;45374;-72
2022/10/06 08:39:29;;;;;;;;;2.00;0.00;;;;;;;;5095612;27;45551;-72
2022/10/06 08:41:56;;;;;;;;;2.00;0.67;;;;;;;;5095304;27;46734;-72
2022/10/06 08:44:41;;;;;;;;;0.00;0.00;;;;;;;;5095782;27;45373;-72
2022/10/06 08:47:21;;;;;;;;;0.00;0.00;;;;;;;;5094383;27;45452;-72
2022/10/06 08:49:48;;;;;;;;;0.00;0.00;;;;;;;;5095531;27;45448;-72
2022/10/06 08:52:22;;;;;;;;;0.67;0.00;;;;;;;;5095410;27;46301;-72
2022/10/06 08:54:48;;;;;;;;;0.00;0.00;;;;;;;;5095411;27;45497;-72
2022/10/06 08:57:19;;;;;;;;;0.33;0.33;;;;;;;;5095079;27;45322;-71
2022/10/06 08:59:46;;;;;;;;;1.33;0.00;;;;;;;;5095423;27;45397;-72
2022/10/06 09:02:26;;;;;;;;;0.00;0.00;;;;;;;;5095043;27;47517;-72
2022/10/06 09:04:52;;;;;;;;;0.67;0.00;;;;;;;;5095337;27;45346;-72
2022/10/06 09:07:37;;;;;;;;;0.00;0.00;;;;;;;;5094803;27;45701;-72
2022/10/06 09:10:21;;;;;;;;;1.00;1.00;;;;;;;;5083274;27;45321;-72
2022/10/06 09:12:50;;;;;;;;;0.67;0.67;;;;;;;;5094981;27;46146;-72
2022/10/06 09:15:32;;;;;;;;;1.67;1.00;;;;;;;;5094783;27;45431;-72
2022/10/06 09:18:09;;;;;;;;;3.67;1.00;;;;;;;;5095191;27;45314;-72
2022/10/06 09:20:38;;;;;;;;;0.33;0.00;;;;;;;;5095242;27;45356;-72
2022/10/06 09:23:05;;;;;;;;;1.33;0.00;;;;;;;;5094831;27;46057;-72
2022/10/06 09:25:31;;;;;;;;;0.67;0.00;;;;;;;;5095495;27;45415;-72
2022/10/06 09:27:58;;;;;;;;;2.00;0.33;;;;;;;;5095278;27;45327;-72
2022/10/06 09:30:24;;;;;;;;;0.33;0.33;;;;;;;;5098742;27;45669;-72
2022/10/06 09:33:01;;;;;;;;;0.00;0.00;;;;;;;;5098666;27;46354;-72
2022/10/06 09:35:27;;;;;;;;;0.00;0.00;;;;;;;;5086204;27;45267;-72
2022/10/06 09:37:55;;;;;;;;;0.33;0.33;;;;;;;;5098786;27;45415;-72
2022/10/06 09:40:28;;;;;;;;;0.00;0.00;;;;;;;;5098830;27;45518;-72
2022/10/06 09:42:53;;;;;;;;;0.67;0.00;;;;;;;;5098649;27;47091;-72
2022/10/06 09:45:24;;;;;;;;;0.00;0.00;;;;;;;;5098003;27;45421;-72
2022/10/06 09:47:49;;;;;;;;;0.67;0.00;;;;;;;;5098880;27;45323;-72
2022/10/06 09:50:19;;;;;;;;;0.00;0.00;;;;;;;;5098393;27;45240;-73
2022/10/06 09:52:56;;;;;;;;;3.00;1.00;;;;;;;;5098358;27;46251;-72
2022/10/06 09:55:22;;;;;;;;;1.33;0.00;;;;;;;;5098324;27;45431;-72
2022/10/06 09:57:51;;;;;;;;;1.00;0.00;;;;;;;;5098433;27;45409;-72
2022/10/06 10:00:26;;;;;;;;;2.00;0.00;;;;;;;;5098570;27;45220;-71
2022/10/06 10:03:05;;;;;;;;;1.00;1.00;;;;;;;;5098235;27;47272;-72
2022/10/06 10:05:32;;;;;;;;;2.33;0.00;;;;;;;;5098197;27;45311;-72
2022/10/06 10:08:28;;;;;;;;;1.00;1.00;;;;;;;;5098013;27;45515;-72
2022/10/06 10:14:15;;;;;;;;;2.33;0.00;;;;;;;;4994710;28;45412;-71
2022/10/06 10:16:41;;;;;;;;;0.00;0.00;;;;;;;;4982353;28;45332;-72
2022/10/06 10:19:20;;;;;;;;;1.67;0.33;;;;;;;;4995589;28;45534;-72
2022/10/06 10:21:46;;;;;;;;;2.33;0.00;;;;;;;;4988581;28;45453;-73
2022/10/06 10:24:18;;;;;;;;;1.67;0.67;;;;;;;;4988068;28;46244;-72
2022/10/06 10:26:56;;;;;;;;;0.33;0.00;;;;;;;;4994789;28;45351;-72
2022/10/06 10:29:23;;;;;;;;;1.00;0.00;;;;;;;;4995346;28;45533;-72
2022/10/06 10:32:10;;;;;;;;;1.00;0.00;;;;;;;;4995040;28;45485;-72
2022/10/06 10:34:38;;;;;;;;;2.00;0.00;;;;;;;;4995014;28;46212;-72
2022/10/06 10:37:06;;;;;;;;;0.33;0.00;;;;;;;;4995202;28;45366;-72
2022/10/06 10:39:39;;;;;;;;;0.33;0.33;;;;;;;;4995048;28;45466;-72
2022/10/06 10:42:10;;;;;;;;;2.00;1.00;;;;;;;;4994868;28;45466;-72
2022/10/06 10:44:38;;;;;;;;;1.00;1.00;;;;;;;;4994689;28;45455;-72
2022/10/06 10:47:13;;;;;;;;;0.00;0.00;;;;;;;;4994752;28;45635;-73
2022/10/06 10:49:42;;;;;;;;;0.00;0.00;;;;;;;;4995133;28;45330;-73
2022/10/06 10:52:10;;;;;;;;;1.33;0.00;;;;;;;;5084666;27;45465;-73
2022/10/06 10:54:38;;;;;;;;;0.00;0.00;;;;;;;;5097560;27;46091;-72
2022/10/06 10:57:08;;;;;;;;;0.67;0.00;;;;;;;;5097302;27;45382;-72
2022/10/06 10:59:42;;;;;;;;;1.33;1.33;;;;;;;;5097817;27;45295;-72
2022/10/06 11:02:11;;;;;;;;;0.00;0.00;;;;;;;;5097284;27;45614;-72
2022/10/06 11:04:39;;;;;;;;;1.33;1.33;;;;;;;;5097268;27;45436;-72
2022/10/06 11:07:05;;;;;;;;;0.00;0.00;;;;;;;;5097193;27;45393;-73
2022/10/06 11:09:43;;;;;;;;;0.33;0.00;;;;;;;;5097215;27;45272;-72
2022/10/06 11:12:17;;;;;;;;;2.00;1.00;;;;;;;;5097112;27;45490;-72
2022/10/06 11:14:58;;;;;;;;;0.67;0.00;;;;;;;;5096914;27;46165;-72
2022/10/06 11:17:32;;;;;;;;;1.33;0.00;;;;;;;;5097141;27;45258;-72
2022/10/06 11:19:57;;;;;;;;;1.00;0.00;;;;;;;;5097386;27;45350;-72
2022/10/06 11:22:26;;;;;;;;;1.00;1.00;;;;;;;;5097291;27;45462;-72
2022/10/06 11:25:00;;;;;;;;;0.00;0.00;;;;;;;;5096693;27;46071;-72
2022/10/06 11:27:44;;;;;;;;;0.67;0.67;;;;;;;;5097107;27;45410;-71
2022/10/06 11:30:18;;;;;;;;;2.33;0.00;;;;;;;;5096867;27;45374;-71
2022/10/06 11:32:48;;;;;;;;;1.67;1.00;;;;;;;;5096953;27;45416;-72
2022/10/06 11:35:16;;;;;;;;;2.00;0.67;;;;;;;;5096643;27;45390;-71
2022/10/06 11:37:46;;;;;;;;;5.00;0.67;;;;;;;;5096924;27;45326;-72
2022/10/06 11:40:30;;;;;;;;;0.67;0.00;;;;;;;;5096642;27;45338;-73
2022/10/06 11:43:15;;;;;;;;;0.00;0.00;;;;;;;;5097053;27;45427;-72
2022/10/06 11:45:53;;;;;;;;;0.33;0.33;;;;;;;;5084005;27;46110;-72
2022/10/06 11:48:25;;;;;;;;;1.67;0.00;;;;;;;;5096851;27;45466;-72
2022/10/06 11:50:54;;;;;;;;;3.00;1.00;;;;;;;;5096100;27;45541;-72
2022/10/06 11:53:38;;;;;;;;;1.33;1.00;;;;;;;;5096447;27;45403;-72
2022/10/06 11:56:16;;;;;;;;;0.00;0.00;;;;;;;;5096122;27;46198;-72
2022/10/06 11:58:51;;;;;;;;;0.00;0.00;;;;;;;;5096260;27;45527;-71
2022/10/06 12:01:49;;;;;;;;;2.00;0.00;;;;;;;;5096613;27;45374;-72
2022/10/06 12:04:15;;;;;;;;;1.00;0.00;;;;;;;;5096543;27;45407;-72
2022/10/06 12:06:40;;;;;;;;;1.00;0.00;;;;;;;;5096261;27;47166;-72
2022/10/06 12:09:24;;;;;;;;;2.00;0.00;;;;;;;;5095589;27;45547;-72
2022/10/06 12:11:50;;;;;;;;;1.00;0.00;;;;;;;;5096574;27;45275;-72
2022/10/06 12:14:36;;;;;;;;;1.33;0.00;;;;;;;;5096404;27;45438;-72
2022/10/06 12:17:24;;;;;;;;;2.00;0.00;;;;;;;;5033025;28;47307;-72
2022/10/06 12:19:52;;;;;;;;;0.00;0.00;;;;;;;;5033029;28;45487;-72
2022/10/06 12:22:17;;;;;;;;;0.33;0.33;;;;;;;;5033335;28;45437;-72
2022/10/06 12:24:50;;;;;;;;;1.67;0.00;;;;;;;;5032865;28;45484;-72
2022/10/06 12:27:15;;;;;;;;;3.00;0.00;;;;;;;;5033055;28;45580;-72
2022/10/06 12:29:49;;;;;;;;;0.50;0.50;;;;;;;;5033129;28;45460;-72
2022/10/06 12:32:14;;;;;;;;;0.33;0.33;;;;;;;;5033221;28;45380;-72
2022/10/06 12:34:40;;;;;;;;;0.00;0.00;;;;;;;;5032854;28;45473;-72
2022/10/06 12:37:23;;;;;;;;;0.00;0.00;;;;;;;;5032043;28;45483;-72
2022/10/06 12:39:48;;;;;;;;;0.00;0.00;;;;;;;;5032892;28;45376;-72
2022/10/06 12:42:18;;;;;;;;;0.33;0.33;;;;;;;;5032825;28;45493;-73
2022/10/06 12:44:51;;;;;;;;;0.00;0.00;;;;;;;;5032676;28;45410;-72
2022/10/06 12:47:36;;;;;;;;;0.67;0.00;;;;;;;;5032324;28;46183;-72
2022/10/06 12:50:21;;;;;;;;;0.00;0.00;;;;;;;;5032263;28;45356;-73
2022/10/06 12:53:12;;;;;;;;;2.00;0.00;;;;;;;;5032329;28;45394;-72
2022/10/06 12:55:41;;;;;;;;;0.00;0.00;;;;;;;;5093836;27;45341;-72
2022/10/06 12:58:19;;;;;;;;;0.00;0.00;;;;;;;;5095641;27;45342;-72
2022/10/06 13:00:45;;;;;;;;;1.00;0.00;;;;;;;;5095534;27;45321;-72
2022/10/06 13:03:15;;;;;;;;;0.00;0.00;;;;;;;;5096170;27;45408;-72
2022/10/06 13:05:40;;;;;;;;;0.00;0.00;;;;;;;;5099558;27;45340;-72
2022/10/06 13:08:19;;;;;;;;;0.33;0.33;;;;;;;;5098352;27;45386;-72
2022/10/06 13:10:44;;;;;;;;;0.00;0.00;;;;;;;;5099269;27;45433;-72
2022/10/06 13:13:23;;;;;;;;;0.33;0.00;;;;;;;;5099089;27;45400;-72
2022/10/06 13:15:48;;;;;;;;;0.00;0.00;;;;;;;;5099420;27;45384;-72
2022/10/06 13:18:15;;;;;;;;;2.00;0.00;;;;;;;;5098985;27;47339;-72
2022/10/06 13:20:47;;;;;;;;;1.33;0.67;;;;;;;;5099261;27;45398;-72
2022/10/06 13:23:26;;;;;;;;;2.00;1.00;;;;;;;;5099109;27;45448;-72
2022/10/06 13:25:58;;;;;;;;;2.00;0.33;;;;;;;;5099055;27;45446;-72
2022/10/06 13:28:25;;;;;;;;;0.33;0.00;;;;;;;;5098976;27;45334;-72
2022/10/06 13:30:52;;;;;;;;;1.00;0.00;;;;;;;;5098775;27;45326;-72
2022/10/06 13:33:17;;;;;;;;;0.67;0.00;;;;;;;;5098834;27;45338;-72
2022/10/06 13:35:42;;;;;;;;;0.00;0.00;;;;;;;;5098656;27;45354;-73
2022/10/06 13:38:08;;;;;;;;;2.00;0.00;;;;;;;;5098780;27;47074;-72
2022/10/06 13:40:34;;;;;;;;;1.33;1.00;;;;;;;;5099043;27;45225;-72
2022/10/06 13:43:00;;;;;;;;;0.00;0.00;;;;;;;;5098982;27;45366;-72
2022/10/06 13:45:26;;;;;;;;;0.00;0.00;;;;;;;;5098746;27;45454;-72
2022/10/06 13:48:21;;;;;;;;;0.00;0.00;;;;;;;;5098455;27;46256;-72
2022/10/06 13:50:48;;;;;;;;;1.00;0.00;;;;;;;;5084376;27;45344;-72
2022/10/06 13:53:30;;;;;;;;;0.67;0.00;;;;;;;;5098737;27;45464;-72
2022/10/06 13:55:55;;;;;;;;;2.00;0.00;;;;;;;;5086440;27;45245;-72
2022/10/06 13:58:24;;;;;;;;;1.67;0.00;;;;;;;;5098424;27;46249;-72
2022/10/06 14:00:56;;;;;;;;;0.00;0.00;;;;;;;;5098604;27;45296;-72
2022/10/06 14:03:34;;;;;;;;;0.00;0.00;;;;;;;;5098303;27;45416;-72
2022/10/06 14:06:16;;;;;;;;;2.00;0.00;;;;;;;;5084396;27;45347;-72
2022/10/06 14:08:44;;;;;;;;;0.00;0.00;;;;;;;;5097648;27;46102;-72
2022/10/06 14:11:09;;;;;;;;;0.00;0.00;;;;;;;;5098081;27;45378;-72
2022/10/06 14:13:35;;;;;;;;;1.00;1.00;;;;;;;;5098437;27;45402;-72
2022/10/06 14:16:01;;;;;;;;;0.00;0.00;;;;;;;;5097683;27;45527;-72
2022/10/06 14:18:28;;;;;;;;;0.00;0.00;;;;;;;;5098294;27;45391;-72
2022/10/06 14:20:55;;;;;;;;;2.00;0.00;;;;;;;;5097952;27;45357;-72
2022/10/06 14:23:37;;;;;;;;;0.00;0.00;;;;;;;;5097915;27;45543;-72
2022/10/06 14:26:03;;;;;;;;;0.00;0.00;;;;;;;;5097911;27;45457;-72
2022/10/06 14:28:28;;;;;;;;;0.33;0.00;;;;;;;;5097887;27;46297;-72
2022/10/06 14:30:55;;;;;;;;;0.00;0.00;;;;;;;;5098119;27;45243;-72
2022/10/06 14:33:20;;;;;;;;;1.00;0.00;;;;;;;;5097545;27;45389;-72
2022/10/06 14:35:47;;;;;;;;;3.00;0.00;;;;;;;;5098064;27;45525;-72
2022/10/06 14:38:12;;;;;;;;;0.00;0.00;;;;;;;;5097718;27;46103;-72
2022/10/06 14:40:39;;;;;;;;;0.00;0.00;;;;;;;;5097883;27;45551;-72
2022/10/06 14:43:04;;;;;;;;;1.00;0.00;;;;;;;;5097975;27;45390;-72
2022/10/06 14:45:32;;;;;;;;;0.00;0.00;;;;;;;;5097999;27;45437;-71
2022/10/06 14:47:58;;;;;;;;;0.00;0.00;;;;;;;;5097128;27;46540;-72
2022/10/06 14:50:23;;;;;;;;;0.00;0.00;;;;;;;;5097751;27;45403;-72
2022/10/06 14:52:48;;;;;;;;;2.00;1.00;;;;;;;;5097439;27;45638;-72
2022/10/06 14:55:13;;;;;;;;;0.00;0.00;;;;;;;;5097788;27;45433;-72
2022/10/06 14:57:39;;;;;;;;;1.00;0.00;;;;;;;;5097686;27;46213;-72
2022/10/06 15:00:07;;;;;;;;;0.00;0.00;;;;;;;;5097451;27;45335;-72
2022/10/06 15:02:32;;;;;;;;;0.00;0.00;;;;;;;;5097621;27;45420;-72